sensor_id;sensor_type;location;lat;lon;timestamp;pressure;altitude;pressure_sealevel;temperature;humidity
39435;BME280;30098;51.880;-0.518;2022-11-15T00:02:00;99427.06;;;18.30;52.19
39435;BME280;30098;51.880;-0.518;2022-11-15T00:04:26;99416.16;;;18.30;51.91
39435;BME280;30098;51.880;-0.518;2022-11-15T00:06:51;99416.47;;;18.29;51.89
39435;BME280;30098;51.880;-0.518;2022-11-15T00:09:16;99405.41;;;18.25;52.24
39435;BME280;30098;51.880;-0.518;2022-11-15T00:11:42;99410.22;;;18.28;52.14
39435;BME280;30098;51.880;-0.518;2022-11-15T00:14:07;99415.69;;;18.28;52.13
39435;BME280;30098;51.880;-0.518;2022-11-15T00:16:33;99405.09;;;18.27;51.87
39435;BME280;30098;51.880;-0.518;2022-11-15T00:18:58;99404.16;;;18.22;52.14
39435;BME280;30098;51.880;-0.518;2022-11-15T00:21:24;99411.69;;;18.25;52.08
39435;BME280;30098;51.880;-0.518;2022-11-15T00:23:49;99408.16;;;18.25;51.99
39435;BME280;30098;51.880;-0.518;2022-11-15T00:26:15;99412.81;;;18.24;51.97
39435;BME280;30098;51.880;-0.518;2022-11-15T00:28:41;99407.69;;;18.23;52.03
39435;BME280;30098;51.880;-0.518;2022-11-15T00:31:09;99400.31;;;18.23;52.07
39435;BME280;30098;51.880;-0.518;2022-11-15T00:33:36;99399.03;;;18.21;51.95
39435;BME280;30098;51.880;-0.518;2022-11-15T00:36:06;99397.91;;;18.22;51.99
39435;BME280;30098;51.880;-0.518;2022-11-15T00:38:34;99396.31;;;18.21;52.08
39435;BME280;30098;51.880;-0.518;2022-11-15T00:41:00;99387.34;;;18.20;51.96
39435;BME280;30098;51.880;-0.518;2022-11-15T00:43:26;99353.94;;;18.02;52.11
39435;BME280;30098;51.880;-0.518;2022-11-15T00:45:51;99377.56;;;18.19;52.07
39435;BME280;30098;51.880;-0.518;2022-11-15T00:48:17;99334.09;;;17.93;52.15
39435;BME280;30098;51.880;-0.518;2022-11-15T00:50:42;99371.31;;;18.19;52.13
39435;BME280;30098;51.880;-0.518;2022-11-15T00:53:08;99212.53;;;17.20;51.71
39435;BME280;30098;51.880;-0.518;2022-11-15T00:55:34;99356.06;;;18.18;51.92
39435;BME280;30098;51.880;-0.518;2022-11-15T00:57:59;99361.06;;;18.16;52.04
39435;BME280;30098;51.880;-0.518;2022-11-15T01:00:24;99363.47;;;18.17;51.89
39435;BME280;30098;51.880;-0.518;2022-11-15T01:02:50;99310.34;;;17.93;51.91
39435;BME280;30098;51.880;-0.518;2022-11-15T01:05:16;99329.22;;;18.07;52.03
39435;BME280;30098;51.880;-0.518;2022-11-15T01:07:41;99325.69;;;18.07;52.09
39435;BME280;30098;51.880;-0.518;2022-11-15T01:10:07;99310.34;;;18.02;52.06
39435;BME280;30098;51.880;-0.518;2022-11-15T01:12:32;99321.66;;;18.13;51.92
39435;BME280;30098;51.880;-0.518;2022-11-15T01:14:58;99302.47;;;18.01;51.95
39435;BME280;30098;51.880;-0.518;2022-11-15T01:17:24;99311.88;;;18.12;51.88
39435;BME280;30098;51.880;-0.518;2022-11-15T01:19:49;99316.50;;;18.12;52.04
39435;BME280;30098;51.880;-0.518;2022-11-15T01:22:15;99274.34;;;17.88;52.25
39435;BME280;30098;51.880;-0.518;2022-11-15T01:24:40;99299.88;;;18.04;52.07
39435;BME280;30098;51.880;-0.518;2022-11-15T01:27:06;99282.28;;;18.02;51.95
39435;BME280;30098;51.880;-0.518;2022-11-15T01:29:31;99277.28;;;18.04;51.93
39435;BME280;30098;51.880;-0.518;2022-11-15T01:31:57;99284.16;;;18.10;52.21
39435;BME280;30098;51.880;-0.518;2022-11-15T01:34:23;99283.66;;;18.08;51.95
39435;BME280;30098;51.880;-0.518;2022-11-15T01:36:48;99274.72;;;18.07;51.91
39435;BME280;30098;51.880;-0.518;2022-11-15T01:39:13;99265.72;;;18.07;51.96
39435;BME280;30098;51.880;-0.518;2022-11-15T01:41:40;99261.41;;;18.06;51.92
39435;BME280;30098;51.880;-0.518;2022-11-15T01:44:36;99260.25;;;18.07;52.05
39435;BME280;30098;51.880;-0.518;2022-11-15T01:47:07;99253.13;;;18.02;52.09
39435;BME280;30098;51.880;-0.518;2022-11-15T01:49:38;99255.16;;;18.05;51.82
39435;BME280;30098;51.880;-0.518;2022-11-15T01:52:09;99224.13;;;17.89;52.07
39435;BME280;30098;51.880;-0.518;2022-11-15T01:54:35;99233.44;;;17.97;51.95
39435;BME280;30098;51.880;-0.518;2022-11-15T01:57:04;99224.75;;;17.94;51.98
39435;BME280;30098;51.880;-0.518;2022-11-15T01:59:30;99231.31;;;18.02;51.91
39435;BME280;30098;51.880;-0.518;2022-11-15T02:01:56;99202.69;;;17.87;51.67
39435;BME280;30098;51.880;-0.518;2022-11-15T02:04:30;99206.66;;;17.99;51.66
39435;BME280;30098;51.880;-0.518;2022-11-15T02:06:56;99207.09;;;18.01;51.95
39435;BME280;30098;51.880;-0.518;2022-11-15T02:09:22;99193.84;;;17.90;51.85
39435;BME280;30098;51.880;-0.518;2022-11-15T02:11:49;99193.81;;;17.99;51.95
39435;BME280;30098;51.880;-0.518;2022-11-15T02:14:18;99188.34;;;17.99;51.88
39435;BME280;30098;51.880;-0.518;2022-11-15T02:30:35;99165.66;;;17.95;51.82
39435;BME280;30098;51.880;-0.518;2022-11-15T02:38:34;99140.63;;;17.93;51.89
39435;BME280;30098;51.880;-0.518;2022-11-15T02:43:39;99138.25;;;17.91;51.80
39435;BME280;30098;51.880;-0.518;2022-11-15T02:46:45;99138.25;;;17.91;51.78
39435;BME280;30098;51.880;-0.518;2022-11-15T02:49:34;99134.69;;;17.91;51.59
39435;BME280;30098;51.880;-0.518;2022-11-15T02:52:00;99125.75;;;17.90;51.58
39435;BME280;30098;51.880;-0.518;2022-11-15T02:54:29;99093.19;;;17.73;51.82
39435;BME280;30098;51.880;-0.518;2022-11-15T02:57:04;99115.97;;;17.89;51.74
39435;BME280;30098;51.880;-0.518;2022-11-15T03:00:02;99109.72;;;17.89;51.67
39435;BME280;30098;51.880;-0.518;2022-11-15T03:02:58;99114.38;;;17.88;51.68
39435;BME280;30098;51.880;-0.518;2022-11-15T03:05:47;99109.25;;;17.87;51.60
39435;BME280;30098;51.880;-0.518;2022-11-15T03:08:28;99099.97;;;17.88;51.54
39435;BME280;30098;51.880;-0.518;2022-11-15T03:11:09;99082.69;;;17.84;51.83
39435;BME280;30098;51.880;-0.518;2022-11-15T03:13:43;99079.59;;;17.85;51.98
39435;BME280;30098;51.880;-0.518;2022-11-15T03:16:49;99073.38;;;17.85;51.67
39435;BME280;30098;51.880;-0.518;2022-11-15T03:19:30;99073.38;;;17.85;51.72
39435;BME280;30098;51.880;-0.518;2022-11-15T03:21:59;99066.34;;;17.84;51.60
39435;BME280;30098;51.880;-0.518;2022-11-15T03:24:28;99060.09;;;17.83;51.75
39435;BME280;30098;51.880;-0.518;2022-11-15T03:26:56;99064.41;;;17.84;51.62
39435;BME280;30098;51.880;-0.518;2022-11-15T03:29:29;99055.78;;;17.82;51.60
39435;BME280;30098;51.880;-0.518;2022-11-15T03:32:01;99025.50;;;17.62;51.55
39435;BME280;30098;51.880;-0.518;2022-11-15T03:34:35;99054.97;;;17.82;51.41
39435;BME280;30098;51.880;-0.518;2022-11-15T03:37:02;99052.25;;;17.82;51.39
39435;BME280;30098;51.880;-0.518;2022-11-15T03:39:28;99040.56;;;17.81;51.62
39435;BME280;30098;51.880;-0.518;2022-11-15T03:44:40;99024.22;;;17.81;51.38
39435;BME280;30098;51.880;-0.518;2022-11-15T03:49:52;99021.84;;;17.80;51.67
39435;BME280;30098;51.880;-0.518;2022-11-15T03:52:21;99010.22;;;17.70;51.76
39435;BME280;30098;51.880;-0.518;2022-11-15T03:54:53;99021.84;;;17.80;51.40
39435;BME280;30098;51.880;-0.518;2022-11-15T03:57:19;99005.81;;;17.78;51.52
39435;BME280;30098;51.880;-0.518;2022-11-15T03:59:45;99012.06;;;17.78;51.36
39435;BME280;30098;51.880;-0.518;2022-11-15T04:02:11;99010.47;;;17.77;51.51
39435;BME280;30098;51.880;-0.518;2022-11-15T04:04:36;98982.75;;;17.63;51.16
39435;BME280;30098;51.880;-0.518;2022-11-15T04:07:02;99006.16;;;17.76;51.43
39435;BME280;30098;51.880;-0.518;2022-11-15T04:09:27;99003.44;;;17.76;51.41
39435;BME280;30098;51.880;-0.518;2022-11-15T04:11:53;98968.06;;;17.55;51.65
39435;BME280;30098;51.880;-0.518;2022-11-15T04:14:18;98998.31;;;17.75;51.70
39435;BME280;30098;51.880;-0.518;2022-11-15T04:16:44;98997.50;;;17.74;51.55
39435;BME280;30098;51.880;-0.518;2022-11-15T04:19:09;98974.13;;;17.73;51.40
39435;BME280;30098;51.880;-0.518;2022-11-15T04:21:53;98947.75;;;17.53;51.16
39435;BME280;30098;51.880;-0.518;2022-11-15T04:24:37;98959.59;;;17.69;51.65
39435;BME280;30098;51.880;-0.518;2022-11-15T04:27:03;98955.41;;;17.72;51.56
39435;BME280;30098;51.880;-0.518;2022-11-15T04:29:28;98949.97;;;17.72;51.33
39435;BME280;30098;51.880;-0.518;2022-11-15T04:32:03;98941.00;;;17.71;51.39
39435;BME280;30098;51.880;-0.518;2022-11-15T04:34:29;98831.94;;;17.09;51.54
39435;BME280;30098;51.880;-0.518;2022-11-15T04:36:55;98905.22;;;17.60;51.58
39435;BME280;30098;51.880;-0.518;2022-11-15T04:39:42;98916.03;;;17.69;51.69
39435;BME280;30098;51.880;-0.518;2022-11-15T04:42:08;98907.84;;;17.69;51.65
39435;BME280;30098;51.880;-0.518;2022-11-15T04:44:34;98902.16;;;17.62;51.79
39435;BME280;30098;51.880;-0.518;2022-11-15T04:47:00;98907.06;;;17.69;51.54
39435;BME280;30098;51.880;-0.518;2022-11-15T04:49:26;98906.25;;;17.68;51.06
39435;BME280;30098;51.880;-0.518;2022-11-15T04:51:51;98914.44;;;17.68;51.38
39435;BME280;30098;51.880;-0.518;2022-11-15T04:54:17;98894.47;;;17.64;51.14
39435;BME280;30098;51.880;-0.518;2022-11-15T04:56:42;98864.34;;;17.48;51.33
39435;BME280;30098;51.880;-0.518;2022-11-15T04:59:08;98901.16;;;17.67;51.61
39435;BME280;30098;51.880;-0.518;2022-11-15T05:01:33;98892.19;;;17.66;51.50
39435;BME280;30098;51.880;-0.518;2022-11-15T05:03:59;98879.38;;;17.67;51.53
39435;BME280;30098;51.880;-0.518;2022-11-15T05:06:43;98850.06;;;17.51;51.51
39435;BME280;30098;51.880;-0.518;2022-11-15T05:09:08;98877.78;;;17.66;51.46
39435;BME280;30098;51.880;-0.518;2022-11-15T05:11:34;98872.69;;;17.64;51.20
39435;BME280;30098;51.880;-0.518;2022-11-15T05:13:59;98871.88;;;17.63;51.72
39435;BME280;30098;51.880;-0.518;2022-11-15T05:16:25;98836.44;;;17.39;51.30
39435;BME280;30098;51.880;-0.518;2022-11-15T05:18:51;98850.41;;;17.50;51.39
39435;BME280;30098;51.880;-0.518;2022-11-15T05:21:17;98852.56;;;17.56;51.26
39435;BME280;30098;51.880;-0.518;2022-11-15T05:23:43;98844.97;;;17.62;51.42
39435;BME280;30098;51.880;-0.518;2022-11-15T05:26:09;98831.47;;;17.53;51.43
39435;BME280;30098;51.880;-0.518;2022-11-15T05:28:34;98841.78;;;17.60;51.42
39435;BME280;30098;51.880;-0.518;2022-11-15T05:31:06;98839.88;;;17.60;51.31
39435;BME280;30098;51.880;-0.518;2022-11-15T05:33:33;98819.56;;;17.58;51.51
39435;BME280;30098;51.880;-0.518;2022-11-15T05:36:07;98822.72;;;17.60;51.56
39435;BME280;30098;51.880;-0.518;2022-11-15T05:38:35;98814.56;;;17.60;51.60
39435;BME280;30098;51.880;-0.518;2022-11-15T05:41:01;98807.53;;;17.59;51.61
39435;BME280;30098;51.880;-0.518;2022-11-15T05:43:29;98781.66;;;17.40;51.72
39435;BME280;30098;51.880;-0.518;2022-11-15T05:45:58;98790.63;;;17.53;51.62
39435;BME280;30098;51.880;-0.518;2022-11-15T05:48:24;98800.50;;;17.58;51.48
39435;BME280;30098;51.880;-0.518;2022-11-15T05:50:50;98795.06;;;17.58;51.46
39435;BME280;30098;51.880;-0.518;2022-11-15T05:53:19;98794.25;;;17.57;51.22
39435;BME280;30098;51.880;-0.518;2022-11-15T05:55:46;98783.94;;;17.51;51.56
39435;BME280;30098;51.880;-0.518;2022-11-15T05:58:12;98795.38;;;17.56;51.38
39435;BME280;30098;51.880;-0.518;2022-11-15T06:00:38;98783.72;;;17.56;51.50
39435;BME280;30098;51.880;-0.518;2022-11-15T06:03:03;98786.44;;;17.56;51.60
39435;BME280;30098;51.880;-0.518;2022-11-15T06:05:28;98783.72;;;17.56;51.42
39435;BME280;30098;51.880;-0.518;2022-11-15T06:07:58;98776.66;;;17.55;51.32
39435;BME280;30098;51.880;-0.518;2022-11-15T06:10:24;98761.59;;;17.45;51.42
39435;BME280;30098;51.880;-0.518;2022-11-15T06:13:00;98773.47;;;17.53;51.66
39435;BME280;30098;51.880;-0.518;2022-11-15T06:15:26;98750.22;;;17.43;51.49
39435;BME280;30098;51.880;-0.518;2022-11-15T06:17:51;98761.47;;;17.54;51.45
39435;BME280;30098;51.880;-0.518;2022-11-15T06:20:17;98759.56;;;17.54;51.42
39435;BME280;30098;51.880;-0.518;2022-11-15T06:22:43;98754.00;;;17.51;51.20
39435;BME280;30098;51.880;-0.518;2022-11-15T06:25:08;98743.78;;;17.48;51.64
39435;BME280;30098;51.880;-0.518;2022-11-15T06:27:34;98762.59;;;17.53;51.43
39435;BME280;30098;51.880;-0.518;2022-11-15T06:29:59;98751.69;;;17.53;51.78
39435;BME280;30098;51.880;-0.518;2022-11-15T06:32:25;98753.66;;;17.52;51.58
39435;BME280;30098;51.880;-0.518;2022-11-15T06:34:50;98756.38;;;17.52;51.52
39435;BME280;30098;51.880;-0.518;2022-11-15T06:37:16;98754.78;;;17.51;51.74
39435;BME280;30098;51.880;-0.518;2022-11-15T06:39:41;98743.88;;;17.51;51.67
39435;BME280;30098;51.880;-0.518;2022-11-15T06:42:08;98746.59;;;17.51;51.34
39435;BME280;30098;51.880;-0.518;2022-11-15T06:44:34;98728.81;;;17.41;51.57
39435;BME280;30098;51.880;-0.518;2022-11-15T06:46:59;98734.94;;;17.51;51.35
39435;BME280;30098;51.880;-0.518;2022-11-15T06:49:25;98734.94;;;17.51;51.79
39435;BME280;30098;51.880;-0.518;2022-11-15T06:51:50;98695.00;;;17.30;51.78
39435;BME280;30098;51.880;-0.518;2022-11-15T06:54:16;98724.38;;;17.49;51.63
39435;BME280;30098;51.880;-0.518;2022-11-15T06:56:41;98718.03;;;17.45;51.84
39435;BME280;30098;51.880;-0.518;2022-11-15T06:59:06;98715.66;;;17.43;51.61
39435;BME280;30098;51.880;-0.518;2022-11-15T07:01:32;98716.53;;;17.48;51.40
39435;BME280;30098;51.880;-0.518;2022-11-15T07:03:57;98713.81;;;17.48;51.72
39435;BME280;30098;51.880;-0.518;2022-11-15T07:06:23;98713.03;;;17.47;51.43
39435;BME280;30098;51.880;-0.518;2022-11-15T07:08:48;98702.94;;;17.48;51.63
39435;BME280;30098;51.880;-0.518;2022-11-15T07:11:14;98691.81;;;17.40;51.78
39435;BME280;30098;51.880;-0.518;2022-11-15T07:13:39;98707.59;;;17.47;51.58
39435;BME280;30098;51.880;-0.518;2022-11-15T07:16:07;98691.81;;;17.40;51.46
39435;BME280;30098;51.880;-0.518;2022-11-15T07:18:34;98686.84;;;17.42;51.79
39435;BME280;30098;51.880;-0.518;2022-11-15T07:21:05;98686.94;;;17.46;51.80
39435;BME280;30098;51.880;-0.518;2022-11-15T07:23:31;98693.53;;;17.45;51.72
39435;BME280;30098;51.880;-0.518;2022-11-15T07:25:57;98675.25;;;17.45;51.48
39435;BME280;30098;51.880;-0.518;2022-11-15T07:28:26;98670.94;;;17.44;51.55
39435;BME280;30098;51.880;-0.518;2022-11-15T07:30:52;98671.75;;;17.45;51.60
39435;BME280;30098;51.880;-0.518;2022-11-15T07:33:18;98660.84;;;17.45;51.52
39435;BME280;30098;51.880;-0.518;2022-11-15T07:35:43;98670.16;;;17.44;51.85
39435;BME280;30098;51.880;-0.518;2022-11-15T07:38:11;98650.53;;;17.38;51.92
39435;BME280;30098;51.880;-0.518;2022-11-15T07:40:37;98651.00;;;17.40;51.48
39435;BME280;30098;51.880;-0.518;2022-11-15T07:43:06;98661.22;;;17.43;51.43
39435;BME280;30098;51.880;-0.518;2022-11-15T07:45:33;98556.47;;;16.75;51.51
39435;BME280;30098;51.880;-0.518;2022-11-15T07:48:00;98537.66;;;16.70;51.82
39435;BME280;30098;51.880;-0.518;2022-11-15T07:50:26;98654.16;;;17.42;51.95
39435;BME280;30098;51.880;-0.518;2022-11-15T07:52:56;98646.09;;;17.34;51.81
39435;BME280;30098;51.880;-0.518;2022-11-15T07:55:26;98642.47;;;17.42;51.98
39435;BME280;30098;51.880;-0.518;2022-11-15T07:57:53;98633.66;;;17.33;51.59
39435;BME280;30098;51.880;-0.518;2022-11-15T08:00:25;98637.38;;;17.40;51.86
39435;BME280;30098;51.880;-0.518;2022-11-15T08:02:50;98641.69;;;17.41;51.95
39435;BME280;30098;51.880;-0.518;2022-11-15T08:05:16;98643.59;;;17.41;51.71
39435;BME280;30098;51.880;-0.518;2022-11-15T08:07:41;98634.66;;;17.40;51.91
39435;BME280;30098;51.880;-0.518;2022-11-15T08:10:07;98540.00;;;16.84;51.67
39435;BME280;30098;51.880;-0.518;2022-11-15T08:12:33;98610.28;;;17.32;51.71
39435;BME280;30098;51.880;-0.518;2022-11-15T08:14:59;98621.03;;;17.40;51.68
39435;BME280;30098;51.880;-0.518;2022-11-15T08:17:25;98616.06;;;17.42;52.09
39435;BME280;30098;51.880;-0.518;2022-11-15T08:19:50;98598.28;;;17.33;51.66
39435;BME280;30098;51.880;-0.518;2022-11-15T08:22:17;98584.78;;;17.24;51.66
39435;BME280;30098;51.880;-0.518;2022-11-15T08:24:43;98613.09;;;17.48;51.84
39435;BME280;30098;51.880;-0.518;2022-11-15T08:27:09;98610.00;;;17.49;51.87
39435;BME280;30098;51.880;-0.518;2022-11-15T08:29:47;98605.03;;;17.51;51.78
39435;BME280;30098;51.880;-0.518;2022-11-15T08:32:12;98603.91;;;17.52;51.74
39435;BME280;30098;51.880;-0.518;2022-11-15T08:34:38;98581.34;;;17.39;51.82
39435;BME280;30098;51.880;-0.518;2022-11-15T08:37:04;98620.69;;;17.54;51.77
39435;BME280;30098;51.880;-0.518;2022-11-15T08:39:30;98548.41;;;17.16;51.58
39435;BME280;30098;51.880;-0.518;2022-11-15T08:41:55;98604.00;;;17.56;51.54
39435;BME280;30098;51.880;-0.518;2022-11-15T08:44:21;98603.19;;;17.55;51.91
39435;BME280;30098;51.880;-0.518;2022-11-15T08:46:46;98591.97;;;17.57;51.77
39435;BME280;30098;51.880;-0.518;2022-11-15T08:49:12;98573.75;;;17.45;51.77
39435;BME280;30098;51.880;-0.518;2022-11-15T08:51:37;98579.94;;;17.58;51.92
39435;BME280;30098;51.880;-0.518;2022-11-15T08:54:03;98574.50;;;17.58;52.00
39435;BME280;30098;51.880;-0.518;2022-11-15T08:56:28;98572.22;;;17.60;52.14
39435;BME280;30098;51.880;-0.518;2022-11-15T08:58:54;98557.81;;;17.59;52.23
39435;BME280;30098;51.880;-0.518;2022-11-15T09:01:20;98559.81;;;17.62;51.89
39435;BME280;30098;51.880;-0.518;2022-11-15T09:03:46;98538.56;;;17.52;51.85
39435;BME280;30098;51.880;-0.518;2022-11-15T09:06:12;98532.41;;;17.55;52.12
39435;BME280;30098;51.880;-0.518;2022-11-15T09:08:38;98542.03;;;17.65;51.98
39435;BME280;30098;51.880;-0.518;2022-11-15T09:11:05;98536.69;;;17.69;52.00
39435;BME280;30098;51.880;-0.518;2022-11-15T09:13:31;98527.97;;;17.63;52.33
39435;BME280;30098;51.880;-0.518;2022-11-15T09:15:58;98499.09;;;17.46;52.22
39435;BME280;30098;51.880;-0.518;2022-11-15T09:18:24;98528.25;;;17.74;52.20
39435;BME280;30098;51.880;-0.518;2022-11-15T09:20:50;98410.47;;;17.04;52.42
39435;BME280;30098;51.880;-0.518;2022-11-15T09:23:15;98520.53;;;17.76;52.03
39435;BME280;30098;51.880;-0.518;2022-11-15T09:25:41;98502.06;;;17.69;52.04
39435;BME280;30098;51.880;-0.518;2022-11-15T09:28:07;98498.84;;;17.80;52.00
39435;BME280;30098;51.880;-0.518;2022-11-15T09:30:33;98510.16;;;17.82;52.34
39435;BME280;30098;51.880;-0.518;2022-11-15T09:32:58;98505.16;;;17.84;52.52
39435;BME280;30098;51.880;-0.518;2022-11-15T09:35:24;98461.69;;;17.59;52.58
39435;BME280;30098;51.880;-0.518;2022-11-15T09:37:49;98497.09;;;17.87;52.34
39435;BME280;30098;51.880;-0.518;2022-11-15T09:40:16;98453.31;;;17.64;52.49
39435;BME280;30098;51.880;-0.518;2022-11-15T09:42:59;98494.22;;;17.96;54.78
39435;BME280;30098;51.880;-0.518;2022-11-15T09:48:33;98478.59;;;18.09;55.61
39435;BME280;30098;51.880;-0.518;2022-11-15T09:51:04;98475.69;;;18.18;55.56
39435;BME280;30098;51.880;-0.518;2022-11-15T09:53:41;98470.31;;;18.21;54.80
39435;BME280;30098;51.880;-0.518;2022-11-15T09:56:19;98472.44;;;18.28;54.38
39435;BME280;30098;51.880;-0.518;2022-11-15T10:01:22;98461.34;;;18.37;53.58
39435;BME280;30098;51.880;-0.518;2022-11-15T10:03:56;98461.44;;;18.40;53.59
39435;BME280;30098;51.880;-0.518;2022-11-15T10:06:26;98467.78;;;18.45;53.44
39435;BME280;30098;51.880;-0.518;2022-11-15T10:11:26;98461.25;;;18.49;53.79
39435;BME280;30098;51.880;-0.518;2022-11-15T10:13:56;98450.78;;;18.51;52.98
39435;BME280;30098;51.880;-0.518;2022-11-15T10:24:42;98437.22;;;18.55;53.31
39435;BME280;30098;51.880;-0.518;2022-11-15T10:27:12;98326.38;;;17.91;53.51
39435;BME280;30098;51.880;-0.518;2022-11-15T10:29:45;98426.38;;;18.58;52.89
39435;BME280;30098;51.880;-0.518;2022-11-15T10:32:13;98426.06;;;18.60;53.09
39435;BME280;30098;51.880;-0.518;2022-11-15T10:34:38;98417.13;;;18.63;53.25
39435;BME280;30098;51.880;-0.518;2022-11-15T10:37:04;98407.53;;;18.69;53.31
39435;BME280;30098;51.880;-0.518;2022-11-15T10:39:29;98395.91;;;18.72;53.04
39435;BME280;30098;51.880;-0.518;2022-11-15T10:41:55;98392.91;;;18.78;52.79
39435;BME280;30098;51.880;-0.518;2022-11-15T10:44:29;98389.09;;;18.82;53.00
39435;BME280;30098;51.880;-0.518;2022-11-15T10:49:25;98357.56;;;18.85;52.74
39435;BME280;30098;51.880;-0.518;2022-11-15T10:57:11;98248.38;;;18.38;52.12
39435;BME280;30098;51.880;-0.518;2022-11-15T10:59:37;98339.66;;;19.03;52.29
39435;BME280;30098;51.880;-0.518;2022-11-15T11:02:26;98338.16;;;19.06;52.44
39435;BME280;30098;51.880;-0.518;2022-11-15T11:04:52;98337.41;;;19.09;53.35
39435;BME280;30098;51.880;-0.518;2022-11-15T11:07:23;98327.72;;;19.12;53.50
39435;BME280;30098;51.880;-0.518;2022-11-15T11:09:57;98245.84;;;18.69;52.58
39435;BME280;30098;51.880;-0.518;2022-11-15T11:12:28;98264.13;;;18.88;52.78
39435;BME280;30098;51.880;-0.518;2022-11-15T11:14:55;98311.13;;;19.20;52.55
39435;BME280;30098;51.880;-0.518;2022-11-15T11:20:20;98313.13;;;19.24;51.78
39435;BME280;30098;51.880;-0.518;2022-11-15T11:23:03;98293.53;;;19.18;52.34
39435;BME280;30098;51.880;-0.518;2022-11-15T11:28:31;98293.34;;;19.30;53.14
39435;BME280;30098;51.880;-0.518;2022-11-15T11:36:40;98260.63;;;19.34;52.51
39435;BME280;30098;51.880;-0.518;2022-11-15T11:39:17;98267.69;;;19.35;52.34
39435;BME280;30098;51.880;-0.518;2022-11-15T11:42:03;98259.13;;;19.36;52.40
39435;BME280;30098;51.880;-0.518;2022-11-15T11:47:51;98246.72;;;19.43;52.21
39435;BME280;30098;51.880;-0.518;2022-11-15T11:50:20;98243.72;;;19.48;52.09
39435;BME280;30098;51.880;-0.518;2022-11-15T11:52:54;98235.16;;;19.49;51.75
39435;BME280;30098;51.880;-0.518;2022-11-15T11:55:27;98236.34;;;19.52;52.09
39435;BME280;30098;51.880;-0.518;2022-11-15T11:58:03;98230.50;;;19.53;51.92
39435;BME280;30098;51.880;-0.518;2022-11-15T12:00:33;98228.97;;;19.52;51.79
39435;BME280;30098;51.880;-0.518;2022-11-15T12:05:34;98227.94;;;19.64;51.37
39435;BME280;30098;51.880;-0.518;2022-11-15T12:10:45;98218.66;;;19.69;51.52
39435;BME280;30098;51.880;-0.518;2022-11-15T12:13:16;98176.66;;;19.50;51.14
39435;BME280;30098;51.880;-0.518;2022-11-15T12:15:53;98201.47;;;19.68;51.50
39435;BME280;30098;51.880;-0.518;2022-11-15T12:18:20;98197.59;;;19.70;51.58
39435;BME280;30098;51.880;-0.518;2022-11-15T12:20:54;98189.06;;;19.75;51.92
39435;BME280;30098;51.880;-0.518;2022-11-15T12:23:31;98190.66;;;19.76;51.58
39435;BME280;30098;51.880;-0.518;2022-11-15T12:26:03;98177.00;;;19.76;51.15
39435;BME280;30098;51.880;-0.518;2022-11-15T12:36:44;98148.91;;;19.79;51.66
39435;BME280;30098;51.880;-0.518;2022-11-15T12:41:39;98053.47;;;19.29;51.29
39435;BME280;30098;51.880;-0.518;2022-11-15T12:44:11;98149.25;;;20.01;51.12
39435;BME280;30098;51.880;-0.518;2022-11-15T12:59:58;98037.84;;;19.56;51.12
39435;BME280;30098;51.880;-0.518;2022-11-15T13:02:37;98116.53;;;20.08;50.81
39435;BME280;30098;51.880;-0.518;2022-11-15T13:27:50;98097.44;;;20.11;50.28
39435;BME280;30098;51.880;-0.518;2022-11-15T13:30:29;98093.13;;;20.10;50.26
39435;BME280;30098;51.880;-0.518;2022-11-15T13:32:55;98092.31;;;20.10;50.98
39435;BME280;30098;51.880;-0.518;2022-11-15T13:35:28;98084.03;;;20.03;51.30
39435;BME280;30098;51.880;-0.518;2022-11-15T13:37:56;98101.72;;;20.12;51.34
39435;BME280;30098;51.880;-0.518;2022-11-15T13:40:26;98111.50;;;20.13;51.23
39435;BME280;30098;51.880;-0.518;2022-11-15T13:42:58;98100.88;;;20.05;51.20
39435;BME280;30098;51.880;-0.518;2022-11-15T13:45:24;98074.16;;;19.91;50.89
39435;BME280;30098;51.880;-0.518;2022-11-15T13:47:56;98070.19;;;19.84;51.23
39435;BME280;30098;51.880;-0.518;2022-11-15T13:50:27;98109.53;;;20.10;51.36
39435;BME280;30098;51.880;-0.518;2022-11-15T13:52:58;98127.25;;;20.24;51.22
39435;BME280;30098;51.880;-0.518;2022-11-15T13:55:26;98124.97;;;20.29;50.88
39435;BME280;30098;51.880;-0.518;2022-11-15T13:58:03;98127.31;;;20.31;51.15
39435;BME280;30098;51.880;-0.518;2022-11-15T14:00:37;98130.84;;;20.35;50.86
39435;BME280;30098;51.880;-0.518;2022-11-15T14:05:39;98142.63;;;20.39;50.91
39435;BME280;30098;51.880;-0.518;2022-11-15T14:10:43;98147.75;;;20.44;50.61
39435;BME280;30098;51.880;-0.518;2022-11-15T14:13:27;98147.75;;;20.44;50.83
39435;BME280;30098;51.880;-0.518;2022-11-15T14:15:53;98149.69;;;20.40;51.00
39435;BME280;30098;51.880;-0.518;2022-11-15T14:18:41;98073.78;;;19.92;50.59
39435;BME280;30098;51.880;-0.518;2022-11-15T14:21:08;98165.78;;;20.49;50.54
39435;BME280;30098;51.880;-0.518;2022-11-15T14:23:33;98159.16;;;20.50;50.29
39435;BME280;30098;51.880;-0.518;2022-11-15T14:25:59;98151.22;;;20.41;50.45
39435;BME280;30098;51.880;-0.518;2022-11-15T14:30:55;98172.06;;;20.53;50.48
39435;BME280;30098;51.880;-0.518;2022-11-15T14:33:32;98187.31;;;20.54;50.24
39435;BME280;30098;51.880;-0.518;2022-11-15T14:36:17;98148.50;;;20.41;50.79
39435;BME280;30098;51.880;-0.518;2022-11-15T14:38:43;98192.06;;;20.57;50.71
39435;BME280;30098;51.880;-0.518;2022-11-15T14:41:27;98187.00;;;20.59;50.88
39435;BME280;30098;51.880;-0.518;2022-11-15T14:43:53;98185.81;;;20.60;50.92
39435;BME280;30098;51.880;-0.518;2022-11-15T14:46:19;98183.50;;;20.62;50.90
39435;BME280;30098;51.880;-0.518;2022-11-15T14:48:45;98186.66;;;20.65;50.97
39435;BME280;30098;51.880;-0.518;2022-11-15T14:51:16;98190.16;;;20.65;50.69
39435;BME280;30098;51.880;-0.518;2022-11-15T14:53:42;98082.81;;;19.96;50.63
39435;BME280;30098;51.880;-0.518;2022-11-15T14:56:08;98172.88;;;20.54;51.35
39435;BME280;30098;51.880;-0.518;2022-11-15T14:58:34;98200.38;;;20.68;51.11
39435;BME280;30098;51.880;-0.518;2022-11-15T15:01:02;98191.75;;;20.66;51.28
39435;BME280;30098;51.880;-0.518;2022-11-15T15:03:27;98175.63;;;20.57;51.03
39435;BME280;30098;51.880;-0.518;2022-11-15T15:05:53;98202.41;;;20.75;50.82